GLD740 SBBV-TGPY
Flight info
| Callsign | GLD740 |
|---|---|
| Flight time | 1h 24m |
| Altitude | 41000 |
| Route | ANLOL DCT ILNER DCT LOLER DCT KUMIX DCT TOBLA DCT ISAKU DCT POS DCT DUKLA DCT IMORO |
| Aircraft | LJ35/M-SGHRWXY/SB1 |
Departure
| Time | 2026-04-25 18:39 |
|---|---|
| Airport | Atlas Brasil Cantanhede International Airport (SBBV) |
Arrival
| Time | 2026-04-25 20:04 |
|---|---|
| Airport | Maurice Bishop International Airport (TGPY) |
| Time | Latitude | Longitude | Altitude | Speed | Heading |
|---|---|---|---|---|---|
| 2026-04-25 18:17 | 2.84396 | -60.69001 | 274 ft | 0 kts | 155° |
| 2026-04-25 18:24 | 2.84397 | -60.69001 | 274 ft | 0 kts | 155° |
| 2026-04-25 18:32 | 2.84390 | -60.68997 | 274 ft | 4 kts | 146° |
| 2026-04-25 18:32 | 2.84398 | -60.68964 | 274 ft | 7 kts | 62° |
| 2026-04-25 18:32 | 2.84428 | -60.68905 | 274 ft | 11 kts | 59° |
| 2026-04-25 18:33 | 2.84465 | -60.68862 | 274 ft | 8 kts | 342° |
| 2026-04-25 18:33 | 2.84515 | -60.68887 | 274 ft | 7 kts | 316° |
| 2026-04-25 18:33 | 2.84497 | -60.68938 | 274 ft | 10 kts | 243° |
| 2026-04-25 18:33 | 2.84458 | -60.69014 | 274 ft | 15 kts | 242° |
| 2026-04-25 18:34 | 2.84412 | -60.69105 | 274 ft | 17 kts | 243° |
| 2026-04-25 18:34 | 2.84364 | -60.69197 | 274 ft | 16 kts | 243° |
| 2026-04-25 18:34 | 2.84310 | -60.69302 | 274 ft | 15 kts | 243° |
| 2026-04-25 18:34 | 2.84256 | -60.69408 | 273 ft | 16 kts | 242° |
| 2026-04-25 18:35 | 2.84208 | -60.69499 | 273 ft | 14 kts | 245° |
| 2026-04-25 18:35 | 2.84159 | -60.69596 | 273 ft | 18 kts | 243° |
| 2026-04-25 18:35 | 2.84109 | -60.69698 | 273 ft | 15 kts | 243° |
| 2026-04-25 18:35 | 2.84053 | -60.69805 | 273 ft | 19 kts | 242° |
| 2026-04-25 18:36 | 2.83996 | -60.69915 | 274 ft | 17 kts | 243° |
| 2026-04-25 18:36 | 2.83960 | -60.70012 | 274 ft | 10 kts | 309° |
| 2026-04-25 18:36 | 2.83999 | -60.70039 | 274 ft | 0 kts | 329° |
| 2026-04-25 18:37 | 2.84010 | -60.70044 | 274 ft | 4 kts | 338° |
| 2026-04-25 18:37 | 2.84050 | -60.70062 | 275 ft | 8 kts | 335° |
| 2026-04-25 18:38 | 2.84102 | -60.70038 | 274 ft | 11 kts | 64° |
| 2026-04-25 18:38 | 2.84106 | -60.70032 | 274 ft | 0 kts | 63° |
| 2026-04-25 18:39 | 2.84113 | -60.70018 | 274 ft | 16 kts | 63° |
| 2026-04-25 18:39 | 2.84307 | -60.69637 | 272 ft | 106 kts | 63° |
| 2026-04-25 18:39 | 2.84742 | -60.68766 | 422 ft | 163 kts | 64° |
| 2026-04-25 18:39 | 2.85212 | -60.67649 | 1121 ft | 182 kts | 70° |
| 2026-04-25 18:40 | 2.85642 | -60.66392 | 1991 ft | 200 kts | 69° |
| 2026-04-25 18:40 | 2.86427 | -60.65198 | 2939 ft | 211 kts | 51° |
| 2026-04-25 18:40 | 2.87568 | -60.64243 | 3957 ft | 219 kts | 29° |
| 2026-04-25 18:40 | 2.89032 | -60.63760 | 5029 ft | 228 kts | 8° |
| 2026-04-25 18:41 | 2.90669 | -60.63858 | 6185 ft | 243 kts | 351° |
| 2026-04-25 18:41 | 2.92407 | -60.64180 | 7111 ft | 269 kts | 351° |
| 2026-04-25 18:41 | 2.94351 | -60.64481 | 7944 ft | 287 kts | 353° |
| 2026-04-25 18:41 | 2.96333 | -60.64749 | 9343 ft | 291 kts | 352° |
| 2026-04-25 18:42 | 2.98361 | -60.65040 | 10487 ft | 298 kts | 352° |
| 2026-04-25 18:42 | 2.99728 | -60.65243 | 11244 ft | 301 kts | 352° |
| 2026-04-25 18:42 | 3.02536 | -60.65653 | 12769 ft | 309 kts | 352° |
| 2026-04-25 18:42 | 3.04686 | -60.65964 | 13955 ft | 314 kts | 352° |
| 2026-04-25 18:43 | 3.06867 | -60.66280 | 15044 ft | 320 kts | 352° |
| 2026-04-25 18:43 | 3.09065 | -60.66599 | 16147 ft | 326 kts | 352° |
| 2026-04-25 18:43 | 3.11324 | -60.66927 | 17313 ft | 331 kts | 352° |
| 2026-04-25 18:43 | 3.13635 | -60.67262 | 18193 ft | 339 kts | 352° |
| 2026-04-25 18:44 | 3.15988 | -60.67603 | 19009 ft | 344 kts | 352° |
| 2026-04-25 18:44 | 3.18370 | -60.67949 | 19821 ft | 349 kts | 352° |
| 2026-04-25 18:44 | 3.20789 | -60.68301 | 20545 ft | 354 kts | 352° |
| 2026-04-25 18:44 | 3.23237 | -60.68656 | 21230 ft | 358 kts | 352° |
| 2026-04-25 18:45 | 3.25717 | -60.69016 | 21920 ft | 362 kts | 352° |
| 2026-04-25 18:45 | 3.28231 | -60.69380 | 22605 ft | 367 kts | 352° |
| 2026-04-25 18:45 | 3.30770 | -60.69749 | 23275 ft | 371 kts | 352° |
| 2026-04-25 18:45 | 3.33344 | -60.70123 | 23911 ft | 375 kts | 352° |
| 2026-04-25 18:46 | 3.35940 | -60.70499 | 24554 ft | 378 kts | 353° |
| 2026-04-25 18:46 | 3.38558 | -60.70879 | 25184 ft | 382 kts | 352° |
| 2026-04-25 18:46 | 3.41198 | -60.71263 | 25812 ft | 385 kts | 353° |
| 2026-04-25 18:46 | 3.43866 | -60.71650 | 26444 ft | 389 kts | 353° |
| 2026-04-25 18:47 | 3.46554 | -60.72040 | 27064 ft | 393 kts | 353° |
| 2026-04-25 18:47 | 3.49273 | -60.72435 | 27729 ft | 397 kts | 353° |
| 2026-04-25 18:47 | 3.52018 | -60.72834 | 28451 ft | 401 kts | 353° |
| 2026-04-25 18:47 | 3.54789 | -60.73236 | 29147 ft | 405 kts | 353° |
| 2026-04-25 18:48 | 3.57594 | -60.73644 | 29838 ft | 409 kts | 353° |
| 2026-04-25 18:48 | 3.60430 | -60.74056 | 30410 ft | 414 kts | 353° |
| 2026-04-25 18:48 | 3.63292 | -60.74471 | 30940 ft | 418 kts | 353° |
| 2026-04-25 18:48 | 3.66184 | -60.74891 | 31468 ft | 422 kts | 353° |
| 2026-04-25 18:49 | 3.69103 | -60.75315 | 31981 ft | 426 kts | 353° |
| 2026-04-25 18:49 | 3.72022 | -60.75740 | 32718 ft | 422 kts | 353° |
| 2026-04-25 18:49 | 3.74926 | -60.76163 | 33419 ft | 421 kts | 353° |
| 2026-04-25 18:49 | 3.77829 | -60.76584 | 34076 ft | 421 kts | 353° |
| 2026-04-25 18:50 | 3.80725 | -60.77004 | 34665 ft | 420 kts | 353° |
| 2026-04-25 18:50 | 3.83578 | -60.77419 | 35231 ft | 420 kts | 353° |
| 2026-04-25 18:50 | 3.86466 | -60.77839 | 35795 ft | 419 kts | 353° |
| 2026-04-25 18:50 | 3.89361 | -60.78143 | 36350 ft | 418 kts | 356° |
| 2026-04-25 18:51 | 3.92253 | -60.78395 | 36909 ft | 417 kts | 356° |
| 2026-04-25 18:51 | 3.94164 | -60.78568 | 37275 ft | 416 kts | 356° |
| 2026-04-25 18:51 | 3.98014 | -60.78925 | 37993 ft | 415 kts | 356° |
| 2026-04-25 18:51 | 4.00891 | -60.79187 | 38530 ft | 414 kts | 356° |
| 2026-04-25 18:52 | 4.03757 | -60.79444 | 38977 ft | 413 kts | 356° |
| 2026-04-25 18:52 | 4.06618 | -60.79704 | 39432 ft | 412 kts | 356° |
| 2026-04-25 18:52 | 4.09465 | -60.79963 | 39874 ft | 410 kts | 356° |
| 2026-04-25 18:52 | 4.12295 | -60.80221 | 40329 ft | 408 kts | 356° |
| 2026-04-25 18:53 | 4.15120 | -60.80477 | 40760 ft | 406 kts | 356° |
| 2026-04-25 18:53 | 4.17956 | -60.80734 | 40881 ft | 414 kts | 356° |
| 2026-04-25 18:53 | 4.23788 | -60.81264 | 40894 ft | 427 kts | 356° |
| 2026-04-25 18:54 | 4.29781 | -60.81809 | 40909 ft | 438 kts | 356° |
| 2026-04-25 18:54 | 4.32830 | -60.82086 | 40914 ft | 442 kts | 356° |
| 2026-04-25 18:55 | 4.39019 | -60.82649 | 40921 ft | 452 kts | 356° |
| 2026-04-25 18:55 | 4.45343 | -60.83224 | 40927 ft | 460 kts | 356° |
| 2026-04-25 18:56 | 4.51744 | -60.83807 | 40931 ft | 463 kts | 356° |
| 2026-04-25 18:56 | 4.58172 | -60.84391 | 40933 ft | 464 kts | 356° |
| 2026-04-25 18:57 | 4.64612 | -60.84977 | 40938 ft | 465 kts | 356° |
| 2026-04-25 18:57 | 4.71049 | -60.85563 | 40940 ft | 464 kts | 356° |
| 2026-04-25 18:58 | 4.77483 | -60.86172 | 40943 ft | 465 kts | 356° |
| 2026-04-25 18:58 | 4.87098 | -60.87074 | 40948 ft | 465 kts | 356° |
| 2026-04-25 18:59 | 4.99966 | -60.88287 | 40944 ft | 464 kts | 356° |
| 2026-04-25 19:00 | 5.09611 | -60.89195 | 40948 ft | 464 kts | 356° |
| 2026-04-25 19:01 | 5.19240 | -60.90104 | 40945 ft | 463 kts | 355° |
| 2026-04-25 19:01 | 5.25655 | -60.90708 | 40944 ft | 463 kts | 355° |
| 2026-04-25 19:02 | 5.35315 | -60.91618 | 40931 ft | 467 kts | 355° |
| 2026-04-25 19:03 | 5.42841 | -60.92509 | 40929 ft | 466 kts | 350° |
| 2026-04-25 19:03 | 5.51323 | -60.94141 | 40922 ft | 466 kts | 350° |
| 2026-04-25 19:04 | 5.60899 | -60.95968 | 40921 ft | 467 kts | 350° |
| 2026-04-25 19:05 | 5.73674 | -60.98403 | 40926 ft | 467 kts | 350° |
| 2026-04-25 19:06 | 5.80064 | -60.99622 | 40924 ft | 468 kts | 350° |
| 2026-04-25 19:06 | 5.89612 | -61.01445 | 40922 ft | 468 kts | 350° |
| 2026-04-25 19:07 | 5.99206 | -61.03277 | 40925 ft | 468 kts | 350° |
| 2026-04-25 19:08 | 6.08803 | -61.05111 | 40921 ft | 468 kts | 350° |
| 2026-04-25 19:09 | 6.19473 | -61.07150 | 40914 ft | 468 kts | 350° |
| 2026-04-25 19:10 | 6.31176 | -61.09387 | 40906 ft | 467 kts | 349° |
| 2026-04-25 19:10 | 6.37567 | -61.10610 | 40901 ft | 468 kts | 349° |
| 2026-04-25 19:11 | 6.43959 | -61.11833 | 40895 ft | 468 kts | 349° |
| 2026-04-25 19:11 | 6.50360 | -61.13058 | 40889 ft | 468 kts | 349° |
| 2026-04-25 19:12 | 6.56764 | -61.14284 | 40884 ft | 469 kts | 349° |
| 2026-04-25 19:12 | 6.63170 | -61.15510 | 40881 ft | 469 kts | 349° |
| 2026-04-25 19:13 | 6.69581 | -61.16738 | 40881 ft | 469 kts | 349° |
| 2026-04-25 19:13 | 6.75999 | -61.17968 | 40874 ft | 469 kts | 349° |
| 2026-04-25 19:14 | 6.82416 | -61.19197 | 40871 ft | 469 kts | 349° |
| 2026-04-25 19:14 | 6.88832 | -61.20427 | 40868 ft | 469 kts | 349° |
| 2026-04-25 19:15 | 6.95250 | -61.21658 | 40869 ft | 470 kts | 349° |
| 2026-04-25 19:15 | 7.01631 | -61.22881 | 40868 ft | 470 kts | 349° |
| 2026-04-25 19:16 | 7.08055 | -61.24114 | 40868 ft | 470 kts | 349° |
| 2026-04-25 19:16 | 7.14483 | -61.25347 | 40869 ft | 470 kts | 349° |
| 2026-04-25 19:17 | 7.19869 | -61.26381 | 40867 ft | 470 kts | 349° |
| 2026-04-25 19:17 | 7.26301 | -61.27616 | 40868 ft | 470 kts | 349° |
| 2026-04-25 19:18 | 7.32728 | -61.28850 | 40869 ft | 470 kts | 349° |
| 2026-04-25 19:18 | 7.39153 | -61.30084 | 40869 ft | 470 kts | 349° |
| 2026-04-25 19:19 | 7.45537 | -61.31311 | 40869 ft | 470 kts | 349° |
| 2026-04-25 19:19 | 7.51957 | -61.32545 | 40870 ft | 470 kts | 349° |
| 2026-04-25 19:20 | 7.58374 | -61.33779 | 40875 ft | 469 kts | 349° |
| 2026-04-25 19:20 | 7.64778 | -61.35011 | 40877 ft | 467 kts | 349° |
| 2026-04-25 19:21 | 7.71142 | -61.36235 | 40874 ft | 465 kts | 349° |
| 2026-04-25 19:21 | 7.80677 | -61.38070 | 40874 ft | 465 kts | 349° |
| 2026-04-25 19:22 | 7.87021 | -61.39292 | 40872 ft | 464 kts | 349° |
| 2026-04-25 19:23 | 7.96551 | -61.41128 | 40873 ft | 466 kts | 349° |
| 2026-04-25 19:23 | 8.06105 | -61.42912 | 40869 ft | 465 kts | 354° |
| 2026-04-25 19:24 | 8.12558 | -61.43271 | 40873 ft | 464 kts | 357° |
| 2026-04-25 19:25 | 8.25452 | -61.43978 | 40873 ft | 464 kts | 357° |
| 2026-04-25 19:25 | 8.31897 | -61.44333 | 40875 ft | 463 kts | 357° |
| 2026-04-25 19:26 | 8.38330 | -61.44680 | 40869 ft | 463 kts | 357° |
| 2026-04-25 19:26 | 8.44762 | -61.45030 | 40873 ft | 463 kts | 357° |
| 2026-04-25 19:27 | 8.50108 | -61.45321 | 40870 ft | 463 kts | 357° |
| 2026-04-25 19:27 | 8.57580 | -61.45727 | 40871 ft | 463 kts | 357° |
| 2026-04-25 19:28 | 8.64012 | -61.46005 | 40868 ft | 463 kts | 1° |
| 2026-04-25 19:28 | 8.70452 | -61.45749 | 40874 ft | 463 kts | 2° |
| 2026-04-25 19:29 | 8.76888 | -61.45524 | 40874 ft | 463 kts | 2° |
| 2026-04-25 19:29 | 8.83335 | -61.45281 | 40878 ft | 464 kts | 2° |
| 2026-04-25 19:30 | 8.89789 | -61.45046 | 40875 ft | 464 kts | 2° |
| 2026-04-25 19:30 | 8.96245 | -61.44807 | 40881 ft | 464 kts | 2° |
| 2026-04-25 19:31 | 9.02708 | -61.44568 | 40884 ft | 465 kts | 2° |
| 2026-04-25 19:31 | 9.09180 | -61.44330 | 40889 ft | 466 kts | 2° |
| 2026-04-25 19:32 | 9.15656 | -61.44090 | 40300 ft | 469 kts | 2° |
| 2026-04-25 19:32 | 9.18923 | -61.43970 | 39821 ft | 470 kts | 2° |
| 2026-04-25 19:32 | 9.21084 | -61.43890 | 39508 ft | 468 kts | 2° |
| 2026-04-25 19:33 | 9.25431 | -61.43730 | 38901 ft | 467 kts | 2° |
| 2026-04-25 19:33 | 9.28692 | -61.43609 | 38433 ft | 469 kts | 2° |
| 2026-04-25 19:33 | 9.31956 | -61.43488 | 37920 ft | 471 kts | 2° |
| 2026-04-25 19:33 | 9.35238 | -61.43368 | 37395 ft | 472 kts | 2° |
| 2026-04-25 19:34 | 9.38526 | -61.43246 | 36897 ft | 473 kts | 2° |
| 2026-04-25 19:34 | 9.41824 | -61.43123 | 36408 ft | 475 kts | 2° |
| 2026-04-25 19:34 | 9.45133 | -61.43001 | 35931 ft | 477 kts | 2° |
| 2026-04-25 19:34 | 9.48452 | -61.42879 | 35465 ft | 478 kts | 1° |
| 2026-04-25 19:35 | 9.51777 | -61.42755 | 35005 ft | 479 kts | 1° |
| 2026-04-25 19:35 | 9.55108 | -61.42632 | 34553 ft | 480 kts | 1° |
| 2026-04-25 19:35 | 9.58449 | -61.42509 | 34111 ft | 481 kts | 1° |
| 2026-04-25 19:35 | 9.61795 | -61.42385 | 33641 ft | 481 kts | 1° |
| 2026-04-25 19:36 | 9.65146 | -61.42261 | 33138 ft | 482 kts | 1° |
| 2026-04-25 19:36 | 9.68506 | -61.42136 | 32646 ft | 483 kts | 1° |
| 2026-04-25 19:36 | 9.71866 | -61.42012 | 32166 ft | 484 kts | 1° |
| 2026-04-25 19:36 | 9.75235 | -61.41887 | 31693 ft | 486 kts | 2° |
| 2026-04-25 19:37 | 9.78629 | -61.41761 | 31226 ft | 491 kts | 2° |
| 2026-04-25 19:37 | 9.82080 | -61.41632 | 30771 ft | 501 kts | 2° |
| 2026-04-25 19:37 | 9.85578 | -61.41503 | 30325 ft | 504 kts | 2° |
| 2026-04-25 19:37 | 9.89050 | -61.41375 | 29873 ft | 503 kts | 2° |
| 2026-04-25 19:38 | 9.92543 | -61.41246 | 29349 ft | 502 kts | 2° |
| 2026-04-25 19:38 | 9.96033 | -61.41116 | 28839 ft | 501 kts | 2° |
| 2026-04-25 19:38 | 9.99468 | -61.40988 | 28344 ft | 501 kts | 2° |
| 2026-04-25 19:38 | 10.02996 | -61.40857 | 27842 ft | 500 kts | 2° |
| 2026-04-25 19:39 | 10.06427 | -61.40731 | 27360 ft | 500 kts | 2° |
| 2026-04-25 19:39 | 10.09903 | -61.40601 | 26879 ft | 500 kts | 2° |
| 2026-04-25 19:39 | 10.13375 | -61.40472 | 26409 ft | 499 kts | 2° |
| 2026-04-25 19:39 | 10.16849 | -61.40343 | 25945 ft | 499 kts | 2° |
| 2026-04-25 19:40 | 10.20316 | -61.40215 | 25485 ft | 499 kts | 2° |
| 2026-04-25 19:40 | 10.23784 | -61.40085 | 25042 ft | 499 kts | 2° |
| 2026-04-25 19:40 | 10.27222 | -61.39964 | 24606 ft | 498 kts | 1° |
| 2026-04-25 19:40 | 10.30712 | -61.39862 | 24163 ft | 498 kts | 1° |
| 2026-04-25 19:41 | 10.34176 | -61.39736 | 23730 ft | 497 kts | 2° |
| 2026-04-25 19:41 | 10.37627 | -61.39590 | 23263 ft | 496 kts | 2° |
| 2026-04-25 19:41 | 10.41076 | -61.39457 | 22752 ft | 495 kts | 2° |
| 2026-04-25 19:41 | 10.42238 | -61.39416 | 22580 ft | 495 kts | 2° |
| 2026-04-25 19:42 | 10.47936 | -61.39661 | 21791 ft | 494 kts | 351° |
| 2026-04-25 19:42 | 10.51279 | -61.40439 | 21323 ft | 493 kts | 346° |
| 2026-04-25 19:42 | 10.54575 | -61.41287 | 20826 ft | 476 kts | 346° |
| 2026-04-25 19:42 | 10.57671 | -61.42073 | 20447 ft | 443 kts | 346° |
| 2026-04-25 19:43 | 10.60577 | -61.42810 | 19972 ft | 420 kts | 346° |
| 2026-04-25 19:43 | 10.63373 | -61.43519 | 19429 ft | 409 kts | 346° |
| 2026-04-25 19:43 | 10.66110 | -61.44215 | 18903 ft | 401 kts | 346° |
| 2026-04-25 19:43 | 10.68803 | -61.44901 | 18381 ft | 399 kts | 346° |
| 2026-04-25 19:44 | 10.71576 | -61.45607 | 17830 ft | 422 kts | 346° |
| 2026-04-25 19:44 | 10.74485 | -61.46350 | 17264 ft | 439 kts | 346° |
| 2026-04-25 19:44 | 10.77489 | -61.47119 | 16725 ft | 449 kts | 346° |
| 2026-04-25 19:44 | 10.80533 | -61.47899 | 16193 ft | 453 kts | 346° |
| 2026-04-25 19:45 | 10.83580 | -61.48676 | 15672 ft | 448 kts | 346° |
| 2026-04-25 19:45 | 10.86591 | -61.49446 | 15163 ft | 444 kts | 346° |
| 2026-04-25 19:45 | 10.89575 | -61.50209 | 14668 ft | 441 kts | 346° |
| 2026-04-25 19:45 | 10.92538 | -61.50965 | 14184 ft | 432 kts | 345° |
| 2026-04-25 19:46 | 10.95300 | -61.51672 | 13718 ft | 389 kts | 345° |
| 2026-04-25 19:46 | 10.97808 | -61.52313 | 13186 ft | 357 kts | 346° |
| 2026-04-25 19:46 | 11.00106 | -61.52893 | 12659 ft | 333 kts | 346° |
| 2026-04-25 19:46 | 11.02293 | -61.53446 | 12133 ft | 315 kts | 346° |
| 2026-04-25 19:47 | 11.04399 | -61.53983 | 11609 ft | 312 kts | 346° |
| 2026-04-25 19:47 | 11.06518 | -61.54524 | 11176 ft | 313 kts | 346° |
| 2026-04-25 19:47 | 11.08619 | -61.55063 | 10850 ft | 310 kts | 345° |
| 2026-04-25 19:47 | 11.10710 | -61.55598 | 10508 ft | 309 kts | 345° |
| 2026-04-25 19:48 | 11.12788 | -61.56128 | 10173 ft | 307 kts | 345° |
| 2026-04-25 19:48 | 11.14855 | -61.56657 | 9852 ft | 306 kts | 345° |
| 2026-04-25 19:48 | 11.16917 | -61.57185 | 9503 ft | 304 kts | 345° |
| 2026-04-25 19:48 | 11.18962 | -61.57709 | 9130 ft | 302 kts | 345° |
| 2026-04-25 19:49 | 11.20997 | -61.58229 | 8697 ft | 301 kts | 345° |
| 2026-04-25 19:49 | 11.21682 | -61.58404 | 8567 ft | 300 kts | 346° |
| 2026-04-25 19:49 | 11.25029 | -61.59261 | 7893 ft | 297 kts | 346° |
| 2026-04-25 19:49 | 11.27028 | -61.59773 | 7496 ft | 295 kts | 346° |
| 2026-04-25 19:50 | 11.30989 | -61.60787 | 6756 ft | 292 kts | 346° |
| 2026-04-25 19:50 | 11.32953 | -61.61290 | 6394 ft | 290 kts | 346° |
| 2026-04-25 19:50 | 11.34905 | -61.61790 | 6029 ft | 289 kts | 346° |
| 2026-04-25 19:51 | 11.36848 | -61.62287 | 5663 ft | 287 kts | 346° |
| 2026-04-25 19:51 | 11.38777 | -61.62782 | 5315 ft | 285 kts | 346° |
| 2026-04-25 19:51 | 11.40696 | -61.63269 | 4961 ft | 284 kts | 347° |
| 2026-04-25 19:51 | 11.42607 | -61.63754 | 4622 ft | 282 kts | 346° |
| 2026-04-25 19:52 | 11.44509 | -61.64239 | 4301 ft | 281 kts | 347° |
| 2026-04-25 19:52 | 11.46404 | -61.64723 | 3952 ft | 280 kts | 346° |
| 2026-04-25 19:52 | 11.48286 | -61.65202 | 3637 ft | 279 kts | 347° |
| 2026-04-25 19:52 | 11.50158 | -61.65681 | 3383 ft | 276 kts | 346° |
| 2026-04-25 19:53 | 11.51928 | -61.66435 | 3099 ft | 278 kts | 329° |
| 2026-04-25 19:53 | 11.53463 | -61.67607 | 3010 ft | 271 kts | 321° |
| 2026-04-25 19:53 | 11.54940 | -61.68784 | 2999 ft | 271 kts | 322° |
| 2026-04-25 19:53 | 11.56438 | -61.69970 | 3003 ft | 275 kts | 321° |
| 2026-04-25 19:54 | 11.57951 | -61.71174 | 3003 ft | 277 kts | 322° |
| 2026-04-25 19:54 | 11.59469 | -61.72385 | 3001 ft | 276 kts | 322° |
| 2026-04-25 19:54 | 11.60979 | -61.73591 | 2999 ft | 275 kts | 321° |
| 2026-04-25 19:54 | 11.61467 | -61.73979 | 3002 ft | 275 kts | 321° |
| 2026-04-25 19:55 | 11.63992 | -61.75991 | 2992 ft | 275 kts | 322° |
| 2026-04-25 19:55 | 11.65501 | -61.77193 | 2996 ft | 275 kts | 322° |
| 2026-04-25 19:55 | 11.67008 | -61.78395 | 2992 ft | 275 kts | 322° |
| 2026-04-25 19:55 | 11.68511 | -61.79595 | 3003 ft | 274 kts | 321° |
| 2026-04-25 19:56 | 11.70014 | -61.80793 | 2995 ft | 274 kts | 322° |
| 2026-04-25 19:56 | 11.71514 | -61.81991 | 2998 ft | 274 kts | 322° |
| 2026-04-25 19:56 | 11.73017 | -61.83189 | 2997 ft | 274 kts | 322° |
| 2026-04-25 19:56 | 11.74515 | -61.84383 | 2995 ft | 273 kts | 322° |
| 2026-04-25 19:57 | 11.76012 | -61.85580 | 3001 ft | 273 kts | 321° |
| 2026-04-25 19:57 | 11.77511 | -61.86775 | 2995 ft | 273 kts | 322° |
| 2026-04-25 19:57 | 11.79007 | -61.87968 | 3001 ft | 273 kts | 321° |
| 2026-04-25 19:57 | 11.80506 | -61.89167 | 2992 ft | 273 kts | 321° |
| 2026-04-25 19:58 | 11.82000 | -61.90362 | 3001 ft | 273 kts | 322° |
| 2026-04-25 19:58 | 11.83497 | -61.91555 | 3000 ft | 274 kts | 321° |
| 2026-04-25 19:58 | 11.84996 | -61.92751 | 2987 ft | 274 kts | 322° |
| 2026-04-25 19:58 | 11.86493 | -61.93946 | 2995 ft | 272 kts | 321° |
| 2026-04-25 19:59 | 11.87959 | -61.95121 | 3003 ft | 271 kts | 321° |
| 2026-04-25 19:59 | 11.89482 | -61.96253 | 2982 ft | 271 kts | 330° |
| 2026-04-25 19:59 | 11.91237 | -61.96941 | 2867 ft | 273 kts | 347° |
| 2026-04-25 19:59 | 11.93128 | -61.97113 | 2654 ft | 274 kts | 1° |
| 2026-04-25 20:00 | 11.95020 | -61.96983 | 2435 ft | 273 kts | 12° |
| 2026-04-25 20:00 | 11.95640 | -61.96820 | 2363 ft | 272 kts | 18° |
| 2026-04-25 20:00 | 11.98317 | -61.95244 | 2007 ft | 264 kts | 44° |
| 2026-04-25 20:00 | 11.99447 | -61.93844 | 1967 ft | 250 kts | 59° |
| 2026-04-25 20:01 | 12.00473 | -61.90598 | 1776 ft | 238 kts | 87° |
| 2026-04-25 20:01 | 12.00470 | -61.88924 | 1672 ft | 235 kts | 91° |
| 2026-04-25 20:01 | 12.00460 | -61.87275 | 1388 ft | 229 kts | 90° |
| 2026-04-25 20:02 | 12.00455 | -61.85665 | 1087 ft | 224 kts | 90° |
| 2026-04-25 20:02 | 12.00447 | -61.84192 | 821 ft | 184 kts | 90° |
| 2026-04-25 20:02 | 12.00441 | -61.83020 | 599 ft | 152 kts | 92° |
| 2026-04-25 20:02 | 12.00431 | -61.82041 | 408 ft | 123 kts | 93° |
| 2026-04-25 20:03 | 12.00415 | -61.81144 | 249 ft | 126 kts | 92° |
| 2026-04-25 20:03 | 12.00417 | -61.80294 | 129 ft | 118 kts | 94° |
| 2026-04-25 20:03 | 12.00403 | -61.79467 | 28 ft | 109 kts | 90° |
| 2026-04-25 20:03 | 12.00400 | -61.79021 | 33 ft | 65 kts | 90° |
| 2026-04-25 20:04 | 12.00397 | -61.78769 | 32 ft | 21 kts | 92° |
| 2026-04-25 20:04 | 12.00419 | -61.78628 | 30 ft | 14 kts | 79° |
| 2026-04-25 20:04 | 12.00500 | -61.78596 | 23 ft | 8 kts | 360° |
| 2026-04-25 20:04 | 12.00503 | -61.78596 | 23 ft | 0 kts | 0° |
| 2026-04-25 20:05 | 12.00516 | -61.78596 | 24 ft | 6 kts | 358° |
| 2026-04-25 20:05 | 12.00560 | -61.78600 | 29 ft | 5 kts | 319° |
| 2026-04-25 20:05 | 12.00571 | -61.78650 | 30 ft | 10 kts | 275° |
| 2026-04-25 20:05 | 12.00574 | -61.78723 | 30 ft | 9 kts | 271° |
| 2026-04-25 20:06 | 12.00589 | -61.78749 | 29 ft | 6 kts | 43° |
| 2026-04-25 20:06 | 12.00627 | -61.78736 | 30 ft | 3 kts | 301° |
| 2026-04-25 20:06 | 12.00629 | -61.78743 | 30 ft | 0 kts | 283° |